Time;durP1;ratioP1;P1;durP2;ratioP2;P2;SDS_P1;SDS_P2;PMS_P1;PMS_P2;Temp;Humidity;BMP_temperature;BMP_pressure;BME280_temperature;BME280_humidity;BME280_pressure;Samples;Min_cycle;Max_cycle;Signal;HPM_P1;HPM_P2
2021/12/18 00:01:39;;;;;;;5.20;1.48;;;5.20;99.90;;;;;;4876875;29;20076;-64
2021/12/18 00:04:08;;;;;;;2.65;1.90;;;5.20;99.90;;;;;;4880136;29;20065;-64
2021/12/18 00:06:35;;;;;;;4.32;1.77;;;5.20;99.90;;;;;;4876122;29;21138;-63
2021/12/18 00:09:03;;;;;;;7.00;2.22;;;5.10;99.90;;;;;;4881971;29;20056;-65
2021/12/18 00:11:30;;;;;;;7.05;2.03;;;5.20;99.90;;;;;;4881307;29;20076;-64
2021/12/18 00:13:57;;;;;;;6.63;2.25;;;5.20;99.90;;;;;;4880651;29;20056;-67
2021/12/18 00:16:25;;;;;;;4.30;3.80;;;5.10;99.90;;;;;;4880013;29;20057;-66
2021/12/18 00:18:54;;;;;;;8.88;2.05;;;5.20;99.90;;;;;;4881532;29;20056;-63
2021/12/18 00:21:21;;;;;;;7.00;1.08;;;5.10;99.90;;;;;;4882374;29;20132;-65
2021/12/18 00:23:49;;;;;;;6.43;0.95;;;5.10;99.90;;;;;;4881685;29;20060;-66
2021/12/18 00:26:16;;;;;;;3.70;1.52;;;5.10;99.90;;;;;;4881572;29;21581;-68
2021/12/18 00:28:43;;;;;;;5.50;1.55;;;5.20;99.90;;;;;;4879021;29;20044;-63
2021/12/18 00:31:10;;;;;;;3.47;1.20;;;5.10;99.90;;;;;;4879253;29;20056;-70
2021/12/18 00:33:37;;;;;;;6.40;2.03;;;5.10;99.90;;;;;;4881999;29;20044;-67
2021/12/18 00:36:05;;;;;;;6.18;1.30;;;5.10;99.90;;;;;;4880964;29;20166;-67
2021/12/18 00:38:32;;;;;;;6.35;1.25;;;5.10;99.90;;;;;;4879365;29;20060;-66
2021/12/18 00:44:01;;;;;;;5.32;1.40;;;5.10;99.90;;;;;;4882086;29;20535;-66
2021/12/18 00:46:25;;;;;;;8.60;1.83;;;5.10;99.90;;;;;;4878957;29;20064;-66
2021/12/18 00:48:53;;;;;;;5.38;1.10;;;5.10;99.90;;;;;;4880976;29;20044;-65
2021/12/18 00:51:20;;;;;;;4.78;1.15;;;5.10;99.90;;;;;;4880822;29;20681;-64
2021/12/18 00:53:47;;;;;;;6.03;2.08;;;5.10;99.90;;;;;;4880960;29;20061;-64
2021/12/18 00:56:14;;;;;;;4.40;1.65;;;5.10;99.90;;;;;;4881764;29;20475;-66
2021/12/18 00:58:42;;;;;;;3.50;1.08;;;5.10;99.90;;;;;;4878769;29;20078;-64
2021/12/18 01:01:10;;;;;;;5.65;1.80;;;5.10;99.90;;;;;;4879434;29;20494;-65
2021/12/18 01:03:40;;;;;;;3.78;1.25;;;5.10;99.90;;;;;;4881187;29;20060;-65
2021/12/18 01:06:07;;;;;;;9.48;1.50;;;5.00;99.90;;;;;;4879392;29;20100;-66
2021/12/18 01:08:34;;;;;;;7.53;2.13;;;5.10;99.90;;;;;;4880322;29;20106;-67
2021/12/18 01:13:37;;;;;;;4.85;2.00;;;5.10;99.90;;;;;;4882351;29;20454;-67
2021/12/18 01:16:16;;;;;;;6.78;1.50;;;5.10;99.90;;;;;;4879156;29;20067;-66
2021/12/18 01:24:14;;;;;;;6.38;0.95;;;5.00;99.90;;;;;;4880726;29;20059;-67
2021/12/18 01:26:41;;;;;;;5.10;1.98;;;5.00;99.90;;;;;;4880171;29;20103;-64
2021/12/18 01:29:09;;;;;;;3.47;1.25;;;5.00;99.90;;;;;;4879799;29;20061;-64
2021/12/18 01:31:36;;;;;;;6.13;1.13;;;4.90;99.90;;;;;;4880003;29;20044;-65
2021/12/18 01:34:03;;;;;;;4.50;1.58;;;4.90;99.90;;;;;;4880741;29;20063;-65
2021/12/18 01:36:30;;;;;;;1.35;0.77;;;4.90;99.90;;;;;;4894113;29;20056;-66
2021/12/18 01:38:57;;;;;;;7.38;1.80;;;4.80;99.90;;;;;;4880331;29;20410;-65
2021/12/18 01:41:24;;;;;;;2.22;1.10;;;4.80;99.90;;;;;;4875550;29;20190;-65
2021/12/18 01:46:47;;;;;;;6.40;1.40;;;4.80;99.90;;;;;;4875191;29;20064;-67
2021/12/18 01:54:30;;;;;;;6.18;1.65;;;4.70;99.90;;;;;;4873269;29;20056;-66
2021/12/18 01:56:59;;;;;;;4.18;1.23;;;4.70;99.90;;;;;;4879564;29;20056;-65
2021/12/18 01:59:45;;;;;;;8.10;1.40;;;4.70;99.90;;;;;;4878218;29;20415;-66
2021/12/18 02:02:12;;;;;;;2.17;0.95;;;4.70;99.90;;;;;;4876389;29;20322;-66
2021/12/18 02:04:40;;;;;;;2.38;1.50;;;4.70;99.90;;;;;;4876799;29;20136;-66
2021/12/18 02:07:07;;;;;;;4.95;1.00;;;4.70;99.90;;;;;;4876476;29;20053;-66
2021/12/18 02:10:02;;;;;;;3.15;1.30;;;4.70;99.90;;;;;;4878163;29;20063;-67
2021/12/18 02:12:35;;;;;;;5.60;1.30;;;4.70;99.90;;;;;;4873809;29;20048;-65
2021/12/18 02:21:06;;;;;;;7.15;2.03;;;4.80;99.90;;;;;;4877628;29;20052;-66
2021/12/18 02:23:36;;;;;;;2.65;1.70;;;4.70;99.90;;;;;;4876128;29;20380;-67
2021/12/18 02:26:03;;;;;;;5.07;1.83;;;4.70;99.90;;;;;;4877966;29;20730;-64
2021/12/18 02:28:30;;;;;;;2.03;0.85;;;4.70;99.90;;;;;;4875819;29;20673;-67
2021/12/18 02:30:58;;;;;;;2.47;1.38;;;4.70;99.90;;;;;;4877163;29;20048;-68
2021/12/18 02:33:26;;;;;;;1.88;1.30;;;4.80;99.90;;;;;;4877439;29;20480;-66
2021/12/18 02:35:56;;;;;;;2.92;1.17;;;4.70;99.90;;;;;;4877946;29;20061;-64
2021/12/18 02:38:43;;;;;;;2.88;1.17;;;4.70;99.90;;;;;;4878479;29;20142;-66
2021/12/18 02:41:26;;;;;;;5.18;1.33;;;4.70;99.90;;;;;;4878249;29;20886;-65
2021/12/18 02:43:56;;;;;;;7.50;1.00;;;4.70;99.90;;;;;;4875727;29;20064;-65
2021/12/18 02:46:24;;;;;;;5.38;2.67;;;4.80;99.90;;;;;;4877421;29;20072;-64
2021/12/18 02:48:53;;;;;;;10.13;1.42;;;4.80;99.90;;;;;;4876490;29;20097;-68
2021/12/18 02:51:21;;;;;;;3.53;1.52;;;4.80;99.90;;;;;;4876764;29;20068;-64
2021/12/18 02:53:53;;;;;;;1.95;0.80;;;4.80;99.90;;;;;;4872844;29;20323;-66
2021/12/18 02:56:23;;;;;;;3.97;1.63;;;4.80;99.90;;;;;;4875788;29;20180;-66
2021/12/18 02:58:59;;;;;;;2.75;1.27;;;4.90;99.90;;;;;;4877244;29;20188;-64
2021/12/18 03:01:28;;;;;;;5.50;1.10;;;4.80;99.90;;;;;;4876179;29;20395;-65
2021/12/18 03:03:57;;;;;;;7.40;1.27;;;4.90;99.90;;;;;;4873043;29;20041;-69
2021/12/18 03:25:05;;;;;;;5.03;1.45;;;4.90;99.90;;;;;;4878054;29;20063;-66
2021/12/18 03:27:32;;;;;;;5.85;1.65;;;4.90;99.90;;;;;;4875004;29;21502;-65
2021/12/18 03:29:59;;;;;;;4.03;1.75;;;4.90;99.90;;;;;;4876682;29;20103;-67
2021/12/18 03:32:26;;;;;;;4.95;1.30;;;4.80;99.90;;;;;;4873429;29;20079;-65
2021/12/18 03:34:53;;;;;;;4.95;1.30;;;4.90;99.90;;;;;;4877110;29;20044;-64
2021/12/18 03:37:21;;;;;;;3.67;1.08;;;4.90;99.90;;;;;;4876243;29;20072;-65
2021/12/18 03:39:49;;;;;;;3.20;1.15;;;4.90;99.90;;;;;;4878487;29;20072;-63
2021/12/18 03:42:16;;;;;;;2.22;1.58;;;4.90;99.90;;;;;;4879456;29;20080;-65
2021/12/18 03:44:44;;;;;;;5.10;1.88;;;4.90;99.90;;;;;;4879438;29;20148;-66
2021/12/18 03:47:11;;;;;;;3.40;1.10;;;4.90;99.90;;;;;;4880858;29;20124;-64
2021/12/18 03:49:38;;;;;;;1.38;0.80;;;5.00;99.90;;;;;;4880692;29;20491;-67
2021/12/18 03:52:06;;;;;;;3.15;1.25;;;4.90;99.90;;;;;;4880139;29;20671;-64
2021/12/18 03:54:33;;;;;;;5.75;1.52;;;5.00;99.90;;;;;;4878316;29;20148;-65
2021/12/18 03:57:00;;;;;;;2.08;1.40;;;5.00;99.90;;;;;;4879005;29;20116;-65
2021/12/18 03:59:27;;;;;;;2.78;0.98;;;5.00;99.90;;;;;;4880049;29;20059;-65
2021/12/18 04:01:55;;;;;;;4.18;1.58;;;5.00;99.90;;;;;;4880440;29;20068;-66
2021/12/18 04:04:22;;;;;;;4.55;0.93;;;5.10;99.90;;;;;;4878860;29;20083;-66
2021/12/18 04:06:50;;;;;;;11.25;1.40;;;5.10;99.90;;;;;;4879731;29;21675;-67
2021/12/18 04:09:17;;;;;;;5.90;1.30;;;5.10;99.90;;;;;;4880704;29;20045;-65
2021/12/18 04:11:45;;;;;;;2.30;1.42;;;5.10;99.90;;;;;;4880182;29;20056;-65
2021/12/18 04:14:13;;;;;;;2.95;1.10;;;5.10;99.90;;;;;;4878054;29;20790;-65
2021/12/18 04:16:40;;;;;;;3.05;1.63;;;5.10;99.90;;;;;;4878263;29;20119;-66
2021/12/18 04:19:07;;;;;;;3.05;0.95;;;5.10;99.90;;;;;;4881133;29;20049;-67
2021/12/18 04:21:35;;;;;;;1.92;0.75;;;5.10;99.90;;;;;;4880101;29;20617;-64
2021/12/18 04:24:03;;;;;;;3.47;1.45;;;5.10;99.90;;;;;;4880117;29;20061;-65
2021/12/18 04:26:31;;;;;;;5.00;1.73;;;5.00;99.90;;;;;;4877314;29;20116;-65
2021/12/18 04:28:58;;;;;;;3.90;1.40;;;5.10;99.90;;;;;;4878391;29;20060;-66
2021/12/18 04:31:25;;;;;;;7.18;1.60;;;5.10;99.90;;;;;;4880627;29;20054;-66
2021/12/18 04:33:52;;;;;;;3.80;1.73;;;5.00;99.90;;;;;;4880226;29;20162;-65
2021/12/18 04:36:21;;;;;;;4.65;1.58;;;5.10;99.90;;;;;;4879421;29;20375;-66
2021/12/18 04:38:49;;;;;;;4.40;2.42;;;5.10;99.90;;;;;;4880116;29;20083;-66
2021/12/18 04:41:22;;;;;;;2.65;1.58;;;5.10;99.90;;;;;;4880025;29;20064;-67
2021/12/18 04:43:52;;;;;;;1.33;0.95;;;5.10;99.90;;;;;;4880951;29;20101;-65
2021/12/18 04:46:20;;;;;;;8.32;1.67;;;5.10;99.90;;;;;;4876077;29;20060;-65
2021/12/18 04:48:47;;;;;;;3.55;1.60;;;5.10;99.90;;;;;;4878453;29;20172;-66
2021/12/18 04:51:14;;;;;;;7.75;1.30;;;5.10;99.90;;;;;;4880495;29;20056;-63
2021/12/18 04:53:41;;;;;;;5.40;1.48;;;5.10;99.90;;;;;;4878384;29;21449;-64
2021/12/18 04:56:08;;;;;;;3.10;1.58;;;5.10;99.90;;;;;;4878762;29;20079;-68
2021/12/18 04:58:35;;;;;;;2.95;1.77;;;5.10;99.90;;;;;;4878293;29;20049;-65
2021/12/18 05:01:02;;;;;;;4.38;2.38;;;5.10;99.90;;;;;;4876215;29;20083;-64
2021/12/18 05:03:30;;;;;;;8.50;1.73;;;5.10;99.90;;;;;;4878137;29;20151;-65
2021/12/18 05:06:00;;;;;;;5.18;1.50;;;5.10;99.90;;;;;;4877345;29;21421;-67
2021/12/18 05:08:27;;;;;;;5.82;0.98;;;5.20;99.90;;;;;;4876788;29;20620;-66
2021/12/18 05:10:54;;;;;;;2.47;1.95;;;5.20;99.90;;;;;;4876745;29;20060;-67
2021/12/18 05:13:21;;;;;;;3.05;1.85;;;5.20;99.90;;;;;;4879009;29;20087;-64
2021/12/18 05:15:48;;;;;;;1.85;1.08;;;5.20;99.90;;;;;;4879072;29;20076;-65
2021/12/18 05:18:15;;;;;;;3.13;1.35;;;5.20;99.90;;;;;;4877339;29;20140;-64
2021/12/18 05:20:42;;;;;;;4.68;1.35;;;5.20;99.90;;;;;;4877412;29;20687;-67
2021/12/18 05:23:09;;;;;;;5.32;1.50;;;5.20;99.90;;;;;;4878896;29;20609;-67
2021/12/18 05:25:36;;;;;;;3.60;0.80;;;5.20;99.90;;;;;;4880663;29;20056;-67
2021/12/18 05:28:03;;;;;;;4.50;1.10;;;5.20;99.90;;;;;;4879852;29;20168;-65
2021/12/18 05:30:30;;;;;;;0.93;0.75;;;5.30;99.90;;;;;;4875427;29;20087;-66
2021/12/18 05:32:57;;;;;;;3.40;1.42;;;5.20;99.90;;;;;;4879306;29;20044;-64
2021/12/18 05:35:24;;;;;;;4.70;1.38;;;5.30;99.90;;;;;;4881253;29;20143;-66
2021/12/18 05:37:54;;;;;;;2.17;1.52;;;5.40;99.90;;;;;;4891263;29;20163;-66
2021/12/18 05:40:24;;;;;;;4.05;1.38;;;5.40;99.90;;;;;;4889357;29;20071;-63
2021/12/18 05:42:52;;;;;;;5.95;1.10;;;5.40;99.90;;;;;;4894601;29;20359;-64
2021/12/18 05:45:20;;;;;;;4.75;1.40;;;5.40;99.90;;;;;;4885365;29;20052;-66
2021/12/18 05:47:47;;;;;;;2.90;1.42;;;5.40;99.90;;;;;;4880018;29;20060;-67
2021/12/18 05:50:17;;;;;;;7.03;1.80;;;5.40;99.90;;;;;;4878671;29;20139;-66
2021/12/18 05:52:46;;;;;;;2.92;1.23;;;5.30;99.90;;;;;;4877971;29;20044;-68
2021/12/18 05:55:15;;;;;;;4.13;0.95;;;5.30;99.90;;;;;;4877578;29;20052;-66
2021/12/18 05:57:43;;;;;;;1.90;0.88;;;5.30;99.90;;;;;;4880042;29;20162;-65
2021/12/18 06:00:12;;;;;;;2.25;0.95;;;5.30;99.90;;;;;;4877262;29;20052;-68
2021/12/18 06:02:39;;;;;;;5.20;1.30;;;5.30;99.90;;;;;;4877496;29;20150;-67
2021/12/18 06:05:07;;;;;;;2.53;1.33;;;5.30;99.90;;;;;;4876345;29;20424;-68
2021/12/18 06:07:51;;;;;;;1.73;0.98;;;5.30;99.90;;;;;;4878666;29;20056;-68
2021/12/18 06:10:19;;;;;;;7.18;2.15;;;5.30;99.90;;;;;;4876087;29;20073;-66
2021/12/18 06:12:46;;;;;;;3.03;0.98;;;5.30;99.90;;;;;;4879552;29;20052;-66
2021/12/18 06:15:13;;;;;;;2.22;0.80;;;5.40;99.90;;;;;;4876150;29;20060;-67
2021/12/18 06:17:40;;;;;;;1.95;1.02;;;5.40;99.90;;;;;;4879443;29;20056;-64
2021/12/18 06:20:09;;;;;;;2.85;1.83;;;5.50;99.90;;;;;;4876318;29;20071;-66
2021/12/18 06:22:36;;;;;;;2.47;0.98;;;5.60;99.90;;;;;;4877528;29;21411;-64
2021/12/18 06:25:04;;;;;;;2.33;1.38;;;5.70;99.90;;;;;;4878497;29;20061;-66
2021/12/18 06:27:31;;;;;;;3.58;1.17;;;5.70;99.90;;;;;;4875486;29;20064;-69
2021/12/18 06:29:58;;;;;;;2.20;1.10;;;5.70;99.90;;;;;;4877488;29;20452;-65
2021/12/18 06:32:25;;;;;;;3.58;1.65;;;5.70;99.90;;;;;;4874720;29;20049;-66
2021/12/18 06:34:52;;;;;;;3.92;1.30;;;5.70;99.90;;;;;;4893595;29;20064;-69
2021/12/18 06:37:19;;;;;;;4.38;1.42;;;5.70;99.90;;;;;;4875062;29;20059;-66
2021/12/18 06:39:46;;;;;;;2.88;1.50;;;5.70;99.90;;;;;;4878181;29;20395;-66
2021/12/18 06:42:33;;;;;;;2.92;1.17;;;5.70;99.90;;;;;;4875136;29;20048;-65
2021/12/18 06:45:00;;;;;;;1.70;0.75;;;5.70;99.90;;;;;;4876699;29;20048;-65
2021/12/18 06:47:27;;;;;;;1.48;0.60;;;5.60;99.90;;;;;;4875249;29;21432;-65
2021/12/18 06:49:54;;;;;;;2.42;1.23;;;5.60;99.90;;;;;;4876756;29;21471;-66
2021/12/18 06:52:21;;;;;;;4.40;1.30;;;5.60;99.90;;;;;;4876281;29;20052;-67
2021/12/18 06:54:48;;;;;;;5.85;2.00;;;5.60;99.90;;;;;;4878002;29;20132;-69
2021/12/18 06:57:15;;;;;;;4.68;1.75;;;5.50;99.90;;;;;;4875473;29;20594;-69
2021/12/18 06:59:42;;;;;;;4.60;1.00;;;5.50;99.90;;;;;;4876395;29;20045;-66
2021/12/18 07:02:09;;;;;;;3.80;1.20;;;5.50;99.90;;;;;;4878093;29;20053;-66
2021/12/18 07:04:37;;;;;;;4.63;1.27;;;5.40;99.90;;;;;;4873887;29;20048;-64
2021/12/18 07:07:04;;;;;;;2.13;1.08;;;5.40;99.90;;;;;;4876941;29;20056;-66
2021/12/18 07:09:31;;;;;;;3.28;0.65;;;5.40;99.90;;;;;;4872873;29;20499;-66
2021/12/18 07:11:58;;;;;;;2.83;1.08;;;5.40;99.90;;;;;;4875930;29;20075;-66
2021/12/18 07:14:27;;;;;;;5.38;1.35;;;5.40;99.90;;;;;;4874078;29;20053;-66
2021/12/18 07:16:54;;;;;;;2.92;0.80;;;5.30;99.90;;;;;;4874010;29;20124;-68
2021/12/18 07:19:21;;;;;;;2.17;0.90;;;5.40;99.90;;;;;;4882622;29;20135;-64
2021/12/18 07:21:48;;;;;;;2.80;1.23;;;5.30;99.90;;;;;;4879396;29;20057;-70
2021/12/18 07:24:15;;;;;;;1.70;0.98;;;5.40;99.90;;;;;;4878728;29;20057;-68
2021/12/18 07:26:42;;;;;;;4.25;2.05;;;5.40;99.90;;;;;;4877519;29;20057;-64
2021/12/18 07:29:09;;;;;;;7.60;4.80;;;5.40;99.90;;;;;;4881496;29;20063;-67
2021/12/18 07:31:36;;;;;;;10.55;4.63;;;5.40;99.90;;;;;;4879244;29;20055;-65
2021/12/18 07:34:03;;;;;;;5.97;2.10;;;5.30;99.90;;;;;;4880722;29;20056;-65
2021/12/18 07:36:31;;;;;;;3.63;1.58;;;5.30;99.90;;;;;;4877911;29;20119;-69
2021/12/18 07:38:58;;;;;;;3.95;1.23;;;5.40;99.90;;;;;;4881924;29;20041;-67
2021/12/18 07:41:25;;;;;;;6.32;2.25;;;5.40;99.90;;;;;;4878475;29;20064;-69
2021/12/18 07:43:52;;;;;;;5.85;2.00;;;5.40;99.90;;;;;;4881076;29;20059;-68
2021/12/18 07:46:20;;;;;;;6.40;2.60;;;5.40;99.90;;;;;;4877020;29;20071;-65
2021/12/18 07:48:47;;;;;;;5.03;3.42;;;5.40;99.90;;;;;;4881278;29;20506;-69
2021/12/18 07:51:14;;;;;;;6.93;1.58;;;5.40;99.90;;;;;;4879443;29;20048;-66
2021/12/18 07:53:41;;;;;;;5.45;3.35;;;5.40;99.90;;;;;;4879720;29;20060;-66
2021/12/18 07:56:09;;;;;;;3.67;1.92;;;5.40;99.90;;;;;;4877689;29;20168;-65
2021/12/18 07:58:37;;;;;;;2.45;1.80;;;5.40;99.90;;;;;;4876245;29;21678;-65
2021/12/18 08:01:04;;;;;;;4.65;2.83;;;5.40;99.90;;;;;;4876306;29;20495;-70
2021/12/18 08:03:31;;;;;;;4.80;2.72;;;5.50;99.90;;;;;;4881415;29;20052;-66
2021/12/18 08:05:59;;;;;;;3.00;1.88;;;5.50;99.90;;;;;;4877822;29;20057;-66
2021/12/18 08:08:26;;;;;;;6.18;3.53;;;5.60;99.90;;;;;;4875228;29;20449;-67
2021/12/18 08:10:53;;;;;;;4.38;2.15;;;5.60;99.90;;;;;;4877049;29;20068;-66
2021/12/18 08:13:20;;;;;;;2.90;0.90;;;5.60;99.90;;;;;;4879911;29;20123;-64
2021/12/18 08:15:47;;;;;;;5.40;2.65;;;5.70;99.90;;;;;;4876605;29;20060;-68
2021/12/18 08:18:14;;;;;;;2.25;1.60;;;5.70;99.90;;;;;;4877606;29;20147;-68
2021/12/18 08:20:41;;;;;;;10.40;3.20;;;5.70;99.90;;;;;;4877149;29;20064;-67
2021/12/18 08:23:09;;;;;;;7.07;2.83;;;5.70;99.90;;;;;;4880348;29;20136;-67
2021/12/18 08:25:36;;;;;;;2.42;2.00;;;5.80;99.90;;;;;;4879701;29;20056;-67
2021/12/18 08:28:04;;;;;;;3.90;2.00;;;5.70;99.90;;;;;;4876499;29;20060;-64
2021/12/18 08:30:35;;;;;;;2.70;1.02;;;5.70;99.90;;;;;;4875985;29;20180;-69
2021/12/18 08:33:02;;;;;;;;;;;5.70;99.90;;;;;;4880314;29;20052;-67
2021/12/18 08:35:31;;;;;;;4.97;0.93;;;5.70;99.90;;;;;;4878191;29;19938;-66
2021/12/18 08:38:00;;;;;;;3.10;1.38;;;5.70;99.90;;;;;;4877744;29;20114;-69
2021/12/18 08:40:28;;;;;;;4.22;2.13;;;5.70;99.90;;;;;;4877199;29;20424;-64
2021/12/18 08:42:55;;;;;;;5.03;0.90;;;5.70;99.90;;;;;;4878743;29;20061;-69
2021/12/18 08:45:23;;;;;;;3.65;1.02;;;5.70;99.90;;;;;;4879586;29;20120;-66
2021/12/18 08:47:51;;;;;;;0.70;0.63;;;5.70;99.90;;;;;;4878488;29;20202;-68
2021/12/18 08:50:19;;;;;;;2.92;1.45;;;5.70;99.90;;;;;;4878552;29;20076;-65
2021/12/18 08:52:48;;;;;;;4.57;1.35;;;5.70;99.90;;;;;;4880160;29;20456;-64
2021/12/18 08:55:17;;;;;;;2.05;1.52;;;5.70;99.90;;;;;;4880701;29;20107;-68
2021/12/18 08:57:44;;;;;;;3.15;1.58;;;5.70;99.90;;;;;;4877698;29;20163;-66
2021/12/18 09:00:13;;;;;;;3.88;1.08;;;5.70;99.90;;;;;;4880625;29;20377;-68
2021/12/18 09:02:41;;;;;;;1.70;1.02;;;5.70;99.90;;;;;;4875673;29;20053;-65
2021/12/18 09:05:10;;;;;;;1.42;0.98;;;5.70;99.90;;;;;;4878813;29;20152;-65
2021/12/18 09:07:37;;;;;;;4.40;0.90;;;5.70;99.90;;;;;;4876033;29;20347;-67
2021/12/18 09:10:06;;;;;;;3.03;0.85;;;5.70;99.90;;;;;;4878034;29;20147;-67
2021/12/18 09:12:33;;;;;;;5.05;1.05;;;5.70;99.90;;;;;;4877173;29;20057;-68
2021/12/18 09:15:00;;;;;;;2.08;0.80;;;5.70;99.90;;;;;;4878733;29;20097;-68
2021/12/18 09:17:28;;;;;;;1.42;0.90;;;5.80;99.90;;;;;;4877908;29;20053;-66
2021/12/18 09:19:55;;;;;;;2.95;0.90;;;5.80;99.90;;;;;;4879641;29;21061;-67
2021/12/18 09:22:23;;;;;;;2.97;1.15;;;5.80;99.90;;;;;;4874178;29;20071;-67
2021/12/18 09:24:50;;;;;;;4.22;0.73;;;5.80;99.90;;;;;;4876949;29;20064;-65
2021/12/18 09:27:17;;;;;;;1.17;0.98;;;5.90;99.90;;;;;;4877434;29;20074;-68
2021/12/18 09:29:45;;;;;;;1.90;1.10;;;5.90;99.90;;;;;;4876631;29;20508;-67
2021/12/18 09:32:12;;;;;;;6.10;1.30;;;6.00;99.90;;;;;;4876952;29;20060;-68
2021/12/18 09:34:39;;;;;;;3.63;1.10;;;6.00;99.90;;;;;;4873289;29;20056;-68
2021/12/18 09:37:07;;;;;;;2.05;1.48;;;6.10;99.90;;;;;;4879013;29;20175;-67
2021/12/18 09:39:34;;;;;;;2.92;1.52;;;6.10;99.90;;;;;;4873145;29;20178;-64
2021/12/18 09:42:02;;;;;;;1.00;0.95;;;6.10;99.90;;;;;;4877716;29;20052;-67
2021/12/18 09:44:32;;;;;;;3.00;0.98;;;6.10;99.90;;;;;;4872630;29;21325;-65
2021/12/18 09:47:00;;;;;;;2.08;0.90;;;6.10;99.90;;;;;;4878090;29;20056;-66
2021/12/18 09:49:27;;;;;;;3.88;1.10;;;6.20;99.90;;;;;;4874532;29;20151;-67
2021/12/18 09:51:55;;;;;;;6.57;1.20;;;6.20;99.90;;;;;;4876552;29;20479;-67
2021/12/18 09:54:23;;;;;;;5.57;1.00;;;6.20;99.90;;;;;;4875449;29;20165;-67
2021/12/18 09:56:51;;;;;;;2.22;0.93;;;6.30;99.90;;;;;;4877446;29;20103;-66
2021/12/18 09:59:19;;;;;;;3.38;1.40;;;6.30;99.90;;;;;;4874830;29;20060;-65
2021/12/18 10:01:47;;;;;;;2.47;0.93;;;6.30;99.90;;;;;;4874144;29;20135;-70
2021/12/18 10:04:46;;;;;;;4.30;1.58;;;6.40;99.90;;;;;;4875302;29;20061;-69
2021/12/18 10:07:25;;;;;;;2.30;0.80;;;6.40;99.90;;;;;;4847937;29;20057;-67
2021/12/18 10:09:58;;;;;;;7.88;1.05;;;6.40;99.90;;;;;;4874328;29;20349;-64
2021/12/18 10:12:31;;;;;;;3.78;1.08;;;6.50;99.90;;;;;;4876336;29;20056;-66
2021/12/18 10:15:13;;;;;;;2.10;1.10;;;6.50;99.90;;;;;;4877921;29;20060;-65
2021/12/18 10:17:45;;;;;;;1.70;1.08;;;6.50;99.90;;;;;;4877537;29;20060;-68
2021/12/18 10:20:23;;;;;;;5.85;1.20;;;6.50;99.90;;;;;;4876613;29;20067;-69
2021/12/18 10:22:53;;;;;;;2.97;0.73;;;6.60;99.90;;;;;;4875684;29;20060;-65
2021/12/18 10:25:30;;;;;;;2.55;1.00;;;6.60;99.90;;;;;;4873515;29;20059;-67
2021/12/18 10:28:08;;;;;;;2.05;0.95;;;6.60;99.90;;;;;;4874840;29;20053;-65
2021/12/18 10:30:41;;;;;;;2.20;0.50;;;6.60;99.90;;;;;;4875273;29;20057;-64
2021/12/18 10:33:11;;;;;;;3.65;0.80;;;6.60;99.90;;;;;;4879017;29;20138;-67
2021/12/18 10:35:50;;;;;;;2.50;0.98;;;6.60;99.90;;;;;;4877705;29;20819;-65
2021/12/18 10:38:52;;;;;;;2.20;0.80;;;6.60;99.90;;;;;;4874686;29;20056;-65
2021/12/18 10:41:27;;;;;;;2.95;0.80;;;6.60;99.90;;;;;;4875934;29;20161;-68
2021/12/18 10:44:08;;;;;;;2.65;1.13;;;6.60;99.90;;;;;;4877340;29;20416;-68
2021/12/18 10:46:38;;;;;;;2.25;0.95;;;6.60;99.90;;;;;;4872284;29;20052;-69
2021/12/18 10:49:06;;;;;;;2.43;0.60;;;6.60;99.90;;;;;;4876038;29;20096;-65
2021/12/18 10:51:34;;;;;;;1.13;0.70;;;6.60;99.90;;;;;;4876197;29;20182;-67
2021/12/18 10:54:06;;;;;;;1.38;0.60;;;6.70;99.90;;;;;;4878649;29;20057;-65
2021/12/18 10:56:45;;;;;;;1.70;1.48;;;6.70;99.90;;;;;;4874555;29;20057;-65
2021/12/18 10:59:45;;;;;;;1.92;0.35;;;6.80;99.90;;;;;;4875212;29;20091;-68
2021/12/18 11:02:14;;;;;;;0.88;0.63;;;6.80;99.90;;;;;;4876766;29;20065;-69
2021/12/18 11:04:44;;;;;;;3.05;1.17;;;6.80;99.90;;;;;;4875585;29;20081;-65
2021/12/18 11:07:19;;;;;;;1.00;0.77;;;6.80;99.90;;;;;;4877823;29;20104;-65
2021/12/18 11:10:10;;;;;;;1.55;0.75;;;6.70;99.90;;;;;;4877856;29;20097;-65
2021/12/18 11:15:19;;;;;;;2.65;1.42;;;6.80;99.90;;;;;;4876920;29;20053;-68
2021/12/18 11:17:47;;;;;;;1.15;0.50;;;6.80;99.90;;;;;;4878437;29;20483;-66
2021/12/18 11:20:15;;;;;;;0.80;0.75;;;6.80;99.90;;;;;;4877322;29;20335;-68
2021/12/18 11:22:42;;;;;;;3.85;0.82;;;6.80;99.90;;;;;;4877946;29;20060;-66
2021/12/18 11:25:11;;;;;;;3.72;0.90;;;6.80;99.90;;;;;;4876808;29;20049;-66
2021/12/18 11:27:39;;;;;;;2.88;0.70;;;6.80;99.90;;;;;;4875156;29;20061;-67
2021/12/18 11:30:14;;;;;;;0.65;0.50;;;6.80;99.90;;;;;;4875740;29;20164;-70
2021/12/18 11:32:44;;;;;;;1.10;0.63;;;6.70;99.90;;;;;;4876607;29;20045;-66
2021/12/18 11:35:19;;;;;;;3.72;1.50;;;6.70;99.90;;;;;;4877109;29;20052;-64
2021/12/18 11:37:50;;;;;;;4.28;1.25;;;6.70;99.90;;;;;;4876590;29;20048;-67
2021/12/18 11:40:25;;;;;;;2.58;0.98;;;6.70;99.90;;;;;;4874340;29;20601;-66
2021/12/18 11:42:52;;;;;;;1.38;1.00;;;6.60;99.90;;;;;;4878057;29;20052;-68
2021/12/18 11:45:19;;;;;;;2.80;1.13;;;6.60;99.90;;;;;;4874188;29;21317;-66
2021/12/18 11:47:56;;;;;;;3.38;1.17;;;6.60;99.90;;;;;;4879027;29;20049;-65
2021/12/18 11:50:36;;;;;;;5.15;1.40;;;6.60;99.90;;;;;;4874247;29;20173;-68
2021/12/18 11:53:31;;;;;;;3.53;2.05;;;6.50;99.90;;;;;;4872540;29;20068;-65
2021/12/18 11:56:00;;;;;;;2.75;1.00;;;6.50;99.90;;;;;;4873577;29;20060;-67
2021/12/18 11:58:29;;;;;;;4.80;1.50;;;6.50;99.90;;;;;;4873495;29;20349;-65
2021/12/18 12:01:03;;;;;;;1.77;0.70;;;6.50;99.90;;;;;;4876224;29;20045;-65
2021/12/18 12:03:40;;;;;;;1.55;1.10;;;6.50;99.90;;;;;;4876534;29;20057;-65
2021/12/18 12:06:24;;;;;;;2.00;0.70;;;6.50;99.90;;;;;;4879442;29;20452;-68
2021/12/18 12:09:27;;;;;;;0.80;0.65;;;6.50;99.90;;;;;;4873623;29;20060;-67
2021/12/18 12:12:04;;;;;;;1.00;0.60;;;6.60;99.90;;;;;;4879427;29;21485;-64
2021/12/18 12:14:35;;;;;;;4.82;0.70;;;6.60;99.90;;;;;;4877204;29;20137;-66
2021/12/18 12:17:21;;;;;;;1.73;0.85;;;6.60;99.90;;;;;;4879183;29;20060;-65
2021/12/18 12:19:57;;;;;;;2.00;1.10;;;6.70;99.90;;;;;;4877176;29;20053;-65
2021/12/18 12:22:42;;;;;;;3.17;0.80;;;6.70;99.90;;;;;;4879329;29;20127;-65
2021/12/18 12:25:16;;;;;;;2.25;0.82;;;6.70;99.90;;;;;;4879762;29;21369;-67
2021/12/18 12:27:47;;;;;;;3.67;1.58;;;6.80;99.90;;;;;;4880482;29;20052;-68
2021/12/18 12:30:28;;;;;;;3.47;1.30;;;6.80;99.90;;;;;;4878192;29;21102;-65
2021/12/18 12:33:06;;;;;;;1.48;0.70;;;6.80;99.90;;;;;;4878939;29;20129;-65
2021/12/18 12:36:22;;;;;;;5.35;0.93;;;6.80;99.90;;;;;;4877260;29;20476;-66
2021/12/18 12:38:54;;;;;;;4.95;0.95;;;6.80;99.90;;;;;;4872761;29;20412;-66
2021/12/18 12:41:26;;;;;;;5.05;0.90;;;6.80;99.90;;;;;;4874709;29;20072;-68
2021/12/18 12:44:00;;;;;;;1.30;0.73;;;6.70;99.90;;;;;;4867724;29;20064;-68
2021/12/18 12:46:29;;;;;;;5.57;1.95;;;6.80;99.90;;;;;;4877877;29;20052;-68
2021/12/18 12:49:05;;;;;;;3.08;1.23;;;6.70;99.90;;;;;;4879624;29;20057;-66
2021/12/18 12:51:56;;;;;;;2.95;0.55;;;6.70;99.90;;;;;;4875189;29;20056;-66
2021/12/18 12:54:49;;;;;;;3.92;1.20;;;6.70;99.90;;;;;;4877219;29;20091;-67
2021/12/18 12:57:22;;;;;;;5.25;0.75;;;6.60;99.90;;;;;;4879824;29;20057;-65
2021/12/18 13:00:21;;;;;;;2.10;0.65;;;6.60;99.90;;;;;;4878631;29;20068;-70
2021/12/18 13:02:51;;;;;;;3.30;0.82;;;6.60;99.90;;;;;;4868280;29;20064;-69
2021/12/18 13:05:20;;;;;;;3.80;1.38;;;6.60;99.90;;;;;;4876174;29;20071;-66
2021/12/18 13:07:58;;;;;;;2.80;1.42;;;6.60;99.90;;;;;;4875024;29;20456;-65
2021/12/18 13:10:36;;;;;;;0.98;0.55;;;6.50;99.90;;;;;;4871675;29;20048;-67
2021/12/18 13:13:14;;;;;;;3.90;0.50;;;6.50;99.90;;;;;;4877082;29;20084;-68
2021/12/18 13:15:50;;;;;;;2.50;0.80;;;6.50;99.90;;;;;;4874677;29;20790;-65
2021/12/18 13:18:19;;;;;;;2.92;0.55;;;6.40;99.90;;;;;;4873240;29;20052;-65
2021/12/18 13:20:56;;;;;;;2.13;0.70;;;6.40;99.90;;;;;;4877795;29;20200;-69
2021/12/18 13:23:47;;;;;;;1.40;0.73;;;6.30;99.90;;;;;;4877675;29;20191;-71
2021/12/18 13:26:28;;;;;;;2.20;0.98;;;6.20;99.90;;;;;;4880616;29;20053;-67
2021/12/18 13:28:58;;;;;;;1.35;0.88;;;6.20;99.90;;;;;;4875102;29;20134;-68
2021/12/18 13:31:27;;;;;;;;;;;6.10;99.90;;;;;;4878342;29;20471;-68
2021/12/18 13:33:57;;;;;;;1.25;1.00;;;6.00;99.90;;;;;;4874733;29;21366;-66
2021/12/18 13:37:02;;;;;;;2.72;1.45;;;6.00;99.90;;;;;;4877572;29;20044;-68
2021/12/18 13:39:39;;;;;;;3.30;1.80;;;5.90;99.90;;;;;;4873831;29;20128;-67
2021/12/18 13:42:11;;;;;;;1.77;1.15;;;5.90;99.90;;;;;;4874944;29;20064;-68
2021/12/18 13:44:47;;;;;;;2.80;0.95;;;5.80;99.90;;;;;;4873760;29;20052;-65
2021/12/18 13:47:37;;;;;;;2.55;1.45;;;5.80;99.90;;;;;;4874740;29;20049;-67
2021/12/18 13:50:13;;;;;;;2.25;1.33;;;5.70;99.90;;;;;;4877471;29;20467;-69
2021/12/18 13:52:54;;;;;;;3.03;1.48;;;5.70;99.90;;;;;;4871764;29;20064;-66
2021/12/18 13:55:30;;;;;;;5.05;0.85;;;5.80;99.90;;;;;;4877518;29;20067;-69
2021/12/18 13:58:30;;;;;;;1.40;0.73;;;5.90;99.90;;;;;;4875833;29;20063;-69
2021/12/18 14:01:16;;;;;;;3.10;0.85;;;6.00;99.90;;;;;;4875482;29;20056;-67
2021/12/18 14:03:51;;;;;;;1.55;0.70;;;6.20;99.90;;;;;;4872214;29;20052;-66